createdAt,value
2023-05-10T00:00:26.591Z,2.73
2023-05-10T00:03:12.097Z,2.50
2023-05-10T00:05:57.975Z,2.30
2023-05-10T00:08:43.166Z,2.77
2023-05-10T00:11:28.444Z,2.47
2023-05-10T00:14:13.671Z,2.67
2023-05-10T00:16:59.138Z,2.57
2023-05-10T00:19:44.801Z,2.30
2023-05-10T00:22:30.070Z,2.20
2023-05-10T00:25:15.364Z,2.40
2023-05-10T00:28:02.332Z,2.77
2023-05-10T00:30:47.725Z,2.47
2023-05-10T00:33:33.068Z,2.50
2023-05-10T00:36:18.214Z,2.60
2023-05-10T00:39:04.662Z,2.87
2023-05-10T00:41:49.998Z,2.50
2023-05-10T00:44:36.381Z,2.40
2023-05-10T00:47:21.812Z,2.43
2023-05-10T00:50:08.787Z,2.13
2023-05-10T00:52:54.185Z,2.30
2023-05-10T00:55:39.585Z,2.57
2023-05-10T00:58:28.949Z,2.40
2023-05-10T01:01:14.736Z,2.27
2023-05-10T01:04:00.354Z,2.37
2023-05-10T01:06:45.844Z,2.20
2023-05-10T01:09:31.749Z,2.17
2023-05-10T01:12:17.020Z,2.33
2023-05-10T01:15:03.344Z,2.43
2023-05-10T01:17:49.992Z,2.40
2023-05-10T01:20:44.374Z,2.20
2023-05-10T01:23:47.819Z,2.60
2023-05-10T01:27:10.908Z,2.23
2023-05-10T01:30:14.808Z,2.47
2023-05-10T01:33:34.180Z,2.47
2023-05-10T01:36:28.790Z,2.20
2023-05-10T01:39:31.489Z,2.23
2023-05-10T01:42:26.911Z,2.20
2023-05-10T01:45:28.444Z,2.33
2023-05-10T01:48:15.888Z,2.40
2023-05-10T01:51:01.684Z,2.20
2023-05-10T01:53:48.970Z,2.30
2023-05-10T01:56:36.472Z,2.40
2023-05-10T01:59:23.269Z,2.20
2023-05-10T02:02:12.870Z,2.40
2023-05-10T02:04:59.333Z,2.20
2023-05-10T02:07:46.525Z,2.20
2023-05-10T02:10:33.336Z,2.17
2023-05-10T02:13:20.022Z,2.20
2023-05-10T02:16:06.606Z,2.03
2023-05-10T02:18:53.862Z,2.30
2023-05-10T02:21:41.054Z,2.20
2023-05-10T02:24:27.949Z,2.20
2023-05-10T02:27:15.206Z,2.13
2023-05-10T02:30:02.448Z,2.40
2023-05-10T02:32:49.279Z,1.90
2023-05-10T02:35:36.087Z,2.20
2023-05-10T02:38:23.797Z,2.40
2023-05-10T02:41:12.249Z,1.93
2023-05-10T02:44:02.286Z,2.00
2023-05-10T02:46:48.065Z,2.30
2023-05-10T02:49:33.386Z,2.40
2023-05-10T02:52:22.177Z,2.10
2023-05-10T02:55:11.764Z,2.10
2023-05-10T02:58:01.181Z,3.20
2023-05-10T03:00:47.400Z,3.50
2023-05-10T03:03:33.074Z,3.00
2023-05-10T03:06:18.650Z,3.57
2023-05-10T03:09:04.529Z,3.00
2023-05-10T03:12:05.227Z,3.27
2023-05-10T03:15:10.288Z,3.20
2023-05-10T03:18:05.821Z,3.10
2023-05-10T03:20:57.042Z,2.90
2023-05-10T03:23:45.780Z,3.10
2023-05-10T03:26:32.715Z,3.40
2023-05-10T03:29:30.105Z,3.17
2023-05-10T03:32:15.704Z,3.57
2023-05-10T03:35:02.494Z,3.30
2023-05-10T03:37:48.475Z,3.80
2023-05-10T03:40:34.156Z,3.20
2023-05-10T03:43:19.439Z,3.00
2023-05-10T03:46:06.056Z,3.70
2023-05-10T03:48:52.801Z,3.23
2023-05-10T03:51:38.207Z,3.40
2023-05-10T03:54:23.636Z,2.97
2023-05-10T03:57:09.231Z,2.80
2023-05-10T03:59:55.080Z,2.93
2023-05-10T04:02:40.523Z,3.30
2023-05-10T04:05:28.676Z,3.00
2023-05-10T04:08:13.932Z,3.20
2023-05-10T04:11:13.761Z,3.07
2023-05-10T04:13:59.414Z,2.80
2023-05-10T04:16:44.840Z,2.70
2023-05-10T04:19:31.300Z,2.60
2023-05-10T04:22:17.003Z,2.57
2023-05-10T04:25:03.296Z,2.47
2023-05-10T04:27:48.585Z,2.73
2023-05-10T04:30:34.018Z,2.40
2023-05-10T04:33:19.288Z,2.47
2023-05-10T04:36:05.163Z,2.70
2023-05-10T04:38:50.588Z,2.73
2023-05-10T04:41:35.932Z,2.73
2023-05-10T04:44:21.199Z,2.70
2023-05-10T04:47:06.445Z,2.67
2023-05-10T04:49:51.663Z,2.93
2023-05-10T04:52:37.540Z,2.93
2023-05-10T04:55:23.117Z,2.60
2023-05-10T04:58:08.880Z,2.53
2023-05-10T05:00:54.149Z,2.63
2023-05-10T05:03:41.081Z,3.17
2023-05-10T05:06:28.241Z,3.03
2023-05-10T05:09:13.549Z,2.83
2023-05-10T05:11:59.962Z,2.70
2023-05-10T05:14:45.409Z,2.30
2023-05-10T05:17:34.010Z,2.60
2023-05-10T05:20:20.041Z,2.80
2023-05-10T05:23:05.086Z,2.70
2023-05-10T05:25:50.335Z,4.00
2023-05-10T05:28:38.270Z,3.93
2023-05-10T05:31:23.757Z,4.30
2023-05-10T05:34:09.373Z,4.70
2023-05-10T05:36:55.096Z,4.87
2023-05-10T05:39:40.709Z,3.87
2023-05-10T05:42:26.718Z,4.00
2023-05-10T05:45:14.541Z,3.90
2023-05-10T05:48:00.465Z,4.10
2023-05-10T05:50:46.650Z,3.63
2023-05-10T05:53:32.263Z,3.43
2023-05-10T05:56:18.571Z,3.17
2023-05-10T05:59:04.905Z,3.03
2023-05-10T06:01:50.451Z,3.47
2023-05-10T06:04:35.958Z,3.33
2023-05-10T06:07:21.332Z,3.43
2023-05-10T06:10:07.317Z,3.40
2023-05-10T06:12:53.877Z,2.70
2023-05-10T06:15:39.781Z,2.80
2023-05-10T06:18:25.514Z,2.90
2023-05-10T06:21:11.182Z,3.20
2023-05-10T06:23:56.417Z,3.17
2023-05-10T06:26:41.764Z,3.63
2023-05-10T06:29:27.369Z,2.80
2023-05-10T06:32:12.977Z,3.00
2023-05-10T06:34:58.512Z,2.93
2023-05-10T06:37:43.991Z,2.90
2023-05-10T06:40:29.583Z,3.00
2023-05-10T06:43:14.754Z,2.90
2023-05-10T06:46:00.072Z,2.80
2023-05-10T06:48:45.813Z,2.80
2023-05-10T06:51:30.931Z,2.83
2023-05-10T06:54:16.255Z,2.50
2023-05-10T06:57:03.591Z,2.60
2023-05-10T06:59:49.226Z,2.50
2023-05-10T07:02:34.714Z,2.80
2023-05-10T07:05:21.001Z,2.97
2023-05-10T07:08:06.906Z,2.53
2023-05-10T07:10:52.194Z,2.37
2023-05-10T07:13:39.027Z,2.43
2023-05-10T07:16:24.594Z,2.30
2023-05-10T07:19:10.092Z,2.77
2023-05-10T07:21:56.141Z,2.47
2023-05-10T07:24:41.529Z,2.33
2023-05-10T07:27:26.906Z,2.53
2023-05-10T07:30:13.043Z,2.63
2023-05-10T07:32:58.473Z,2.93
2023-05-10T07:35:44.447Z,2.50
2023-05-10T07:38:30.159Z,2.30
2023-05-10T07:41:15.385Z,2.37
2023-05-10T07:44:00.741Z,2.40
2023-05-10T07:46:46.077Z,2.40
2023-05-10T07:49:31.501Z,2.00
2023-05-10T07:52:16.779Z,2.50
2023-05-10T07:55:01.987Z,2.27
2023-05-10T07:57:47.459Z,2.40
2023-05-10T08:00:32.641Z,2.33
2023-05-10T08:03:18.212Z,2.60
2023-05-10T08:06:04.400Z,2.70
2023-05-10T08:08:51.382Z,2.57
2023-05-10T08:11:36.978Z,2.47
2023-05-10T08:14:22.162Z,2.00
2023-05-10T08:17:07.576Z,2.30
2023-05-10T08:19:52.849Z,2.43
2023-05-10T08:22:38.340Z,2.37
2023-05-10T08:25:23.849Z,2.60
2023-05-10T08:28:09.987Z,3.00
2023-05-10T08:30:56.887Z,2.70
2023-05-10T08:33:44.429Z,2.60
2023-05-10T08:36:30.083Z,2.97
2023-05-10T08:39:26.763Z,2.67
2023-05-10T08:42:20.582Z,2.50
2023-05-10T08:45:08.174Z,2.60
2023-05-10T08:47:54.179Z,2.57
2023-05-10T08:50:42.117Z,2.50
2023-05-10T08:53:29.878Z,2.43
2023-05-10T08:56:16.678Z,2.80
2023-05-10T08:59:02.700Z,2.80
2023-05-10T09:01:50.358Z,2.30
2023-05-10T09:04:36.276Z,2.60
2023-05-10T09:07:21.393Z,2.43
2023-05-10T09:10:07.648Z,2.23
2023-05-10T09:12:54.332Z,2.53
2023-05-10T09:15:40.017Z,2.50
2023-05-10T09:18:27.256Z,2.57
2023-05-10T09:21:14.746Z,2.60
2023-05-10T09:24:04.305Z,2.70
2023-05-10T09:26:49.959Z,2.63
2023-05-10T09:29:44.690Z,2.40
2023-05-10T09:32:43.776Z,2.10
2023-05-10T09:35:31.512Z,2.53
2023-05-10T09:38:17.282Z,2.47
2023-05-10T09:41:03.649Z,2.53
2023-05-10T09:43:50.258Z,2.60
2023-05-10T09:46:39.014Z,2.30
2023-05-10T09:49:24.750Z,2.67
2023-05-10T09:52:10.019Z,2.50
2023-05-10T09:54:56.101Z,2.40
2023-05-10T09:57:41.917Z,2.33
2023-05-10T10:00:28.265Z,2.70
2023-05-10T10:03:16.279Z,2.50
2023-05-10T10:06:01.892Z,2.20
2023-05-10T10:08:47.455Z,2.33
2023-05-10T10:11:35.331Z,2.10
2023-05-10T10:14:22.267Z,2.57
2023-05-10T10:17:09.077Z,2.07
2023-05-10T10:19:55.993Z,2.00
2023-05-10T10:22:41.266Z,2.27
2023-05-10T10:25:26.820Z,2.63
2023-05-10T10:28:26.160Z,2.60
2023-05-10T10:31:25.554Z,2.17
2023-05-10T10:34:20.028Z,2.20
2023-05-10T10:37:07.520Z,2.27
2023-05-10T10:39:53.075Z,2.37
2023-05-10T10:42:48.323Z,2.10
2023-05-10T10:45:33.946Z,2.17
2023-05-10T10:48:26.212Z,2.30
2023-05-10T10:51:12.926Z,2.13
2023-05-10T10:54:10.525Z,2.30
2023-05-10T10:57:15.187Z,2.13
2023-05-10T11:00:23.316Z,2.10
2023-05-10T11:03:15.753Z,2.40
2023-05-10T11:06:02.801Z,2.10
2023-05-10T11:08:48.790Z,2.17
2023-05-10T11:11:35.566Z,1.83
2023-05-10T11:14:23.381Z,1.80
2023-05-10T11:17:28.119Z,2.00
2023-05-10T11:20:16.006Z,2.30
2023-05-10T11:23:22.383Z,2.10
2023-05-10T11:26:12.041Z,2.10
2023-05-10T11:28:57.861Z,2.00
2023-05-10T11:31:47.940Z,2.13
2023-05-10T11:34:36.235Z,2.10
2023-05-10T11:37:21.848Z,1.97
2023-05-10T11:40:07.510Z,2.17
2023-05-10T11:42:52.884Z,1.90
2023-05-10T11:45:38.526Z,2.17
2023-05-10T11:48:24.954Z,1.63
2023-05-10T11:51:11.899Z,2.00
2023-05-10T11:53:58.506Z,2.00
2023-05-10T11:56:43.766Z,2.20
2023-05-10T11:59:29.010Z,2.13
2023-05-10T12:02:17.266Z,1.60
2023-05-10T12:05:05.828Z,2.03
2023-05-10T12:07:51.432Z,2.03
2023-05-10T12:10:36.768Z,2.10
2023-05-10T12:13:22.475Z,2.00
2023-05-10T12:16:19.048Z,2.20
2023-05-10T12:19:04.773Z,2.20
2023-05-10T12:21:50.987Z,1.97
2023-05-10T12:24:39.020Z,1.60
2023-05-10T12:27:24.198Z,2.10
2023-05-10T12:30:10.119Z,2.07
2023-05-10T12:33:01.378Z,1.90
2023-05-10T12:35:49.530Z,1.70
2023-05-10T12:38:49.037Z,2.20
2023-05-10T12:41:34.568Z,1.60
2023-05-10T12:44:19.986Z,1.90
2023-05-10T12:47:05.362Z,1.87
2023-05-10T12:49:50.873Z,1.73
2023-05-10T12:52:36.456Z,1.80
2023-05-10T12:55:21.826Z,1.70
2023-05-10T12:58:07.138Z,1.87
2023-05-10T13:00:53.444Z,1.60
2023-05-10T13:03:38.869Z,1.80
2023-05-10T13:06:24.318Z,1.97
2023-05-10T13:09:09.659Z,2.07
2023-05-10T13:11:55.282Z,2.43
2023-05-10T13:14:41.678Z,2.60
2023-05-10T13:17:27.063Z,2.73
2023-05-10T13:20:12.597Z,2.60
2023-05-10T13:22:57.871Z,3.10
2023-05-10T13:25:43.270Z,2.43
2023-05-10T13:28:28.662Z,2.60
2023-05-10T13:31:13.941Z,2.43
2023-05-10T13:33:59.208Z,2.50
2023-05-10T13:36:44.418Z,2.60
2023-05-10T13:39:34.249Z,2.67
2023-05-10T13:42:19.790Z,2.53
2023-05-10T13:45:05.697Z,3.33
2023-05-10T13:47:51.104Z,2.77
2023-05-10T13:50:36.884Z,2.73
2023-05-10T13:53:22.198Z,2.60
2023-05-10T13:56:07.555Z,3.07
2023-05-10T13:58:53.563Z,2.60
2023-05-10T14:01:39.195Z,2.93
2023-05-10T14:04:24.514Z,3.00
2023-05-10T14:07:09.649Z,2.77
2023-05-10T14:09:56.074Z,2.80
2023-05-10T14:12:41.457Z,3.40
2023-05-10T14:15:26.968Z,3.10
2023-05-10T14:18:13.015Z,3.17
2023-05-10T14:20:58.984Z,2.80
2023-05-10T14:23:46.149Z,3.03
2023-05-10T14:26:32.507Z,2.97
2023-05-10T14:29:18.489Z,3.00
2023-05-10T14:32:04.387Z,2.53
2023-05-10T14:34:49.576Z,2.50
2023-05-10T14:37:35.344Z,3.00
2023-05-10T14:40:22.164Z,2.97
2023-05-10T14:43:07.807Z,5.80
2023-05-10T14:45:53.650Z,4.37
2023-05-10T14:48:39.508Z,3.57
2023-05-10T14:51:25.446Z,3.43
2023-05-10T14:54:10.893Z,2.93
2023-05-10T14:56:56.508Z,3.83
2023-05-10T14:59:42.282Z,3.53
2023-05-10T15:02:28.109Z,4.10
2023-05-10T15:05:14.500Z,4.57
2023-05-10T15:08:00.689Z,3.50
2023-05-10T15:10:46.267Z,3.87
2023-05-10T15:13:31.856Z,3.87
2023-05-10T15:16:17.370Z,3.37
2023-05-10T15:19:03.840Z,4.07
2023-05-10T15:21:49.586Z,3.77
2023-05-10T15:24:38.060Z,3.93
2023-05-10T15:27:24.037Z,3.80
2023-05-10T15:30:10.452Z,4.20
2023-05-10T15:32:57.226Z,4.13
2023-05-10T15:35:42.501Z,3.20
2023-05-10T15:38:27.791Z,3.30
2023-05-10T15:41:13.012Z,3.70
2023-05-10T15:44:00.696Z,6.83
2023-05-10T15:46:46.341Z,8.40
2023-05-10T15:49:31.781Z,9.70
2023-05-10T15:52:17.041Z,12.13
2023-05-10T15:55:02.231Z,13.13
2023-05-10T15:57:48.848Z,12.83
2023-05-10T16:00:34.819Z,11.87
2023-05-10T16:03:20.398Z,11.20
2023-05-10T16:06:05.733Z,11.17
2023-05-10T16:08:51.979Z,9.93
2023-05-10T16:11:38.915Z,7.97
2023-05-10T16:14:24.873Z,8.33
2023-05-10T16:17:10.661Z,8.10
2023-05-10T16:19:56.348Z,9.33
2023-05-10T16:22:41.755Z,8.93
2023-05-10T16:25:26.926Z,9.10
2023-05-10T16:28:12.212Z,9.67
2023-05-10T16:30:57.455Z,8.23
2023-05-10T16:33:42.762Z,7.60
2023-05-10T16:36:29.427Z,8.43
2023-05-10T16:39:15.033Z,8.13
2023-05-10T16:42:01.162Z,7.97
2023-05-10T16:44:46.617Z,7.73
2023-05-10T16:47:31.908Z,8.80
2023-05-10T16:50:17.157Z,7.40
2023-05-10T16:53:02.433Z,7.20
2023-05-10T16:55:48.183Z,7.00
2023-05-10T16:58:34.140Z,7.47
2023-05-10T17:01:20.058Z,7.77
2023-05-10T17:04:05.668Z,6.90
2023-05-10T17:06:51.527Z,7.23
2023-05-10T17:09:36.832Z,7.17
2023-05-10T17:12:22.201Z,7.17
2023-05-10T17:15:08.366Z,6.67
2023-05-10T17:17:53.743Z,7.03
2023-05-10T17:20:39.494Z,6.60
2023-05-10T17:23:25.219Z,6.53
2023-05-10T17:26:10.836Z,6.77
2023-05-10T17:28:56.542Z,6.53
2023-05-10T17:31:42.098Z,6.30
2023-05-10T17:34:28.239Z,5.90
2023-05-10T17:37:13.874Z,6.10
2023-05-10T17:40:03.567Z,6.17
2023-05-10T17:42:49.186Z,6.33
2023-05-10T17:45:35.068Z,6.07
2023-05-10T17:48:20.775Z,5.23
2023-05-10T17:51:06.658Z,6.00
2023-05-10T17:53:52.734Z,4.73
2023-05-10T17:56:38.313Z,5.67
2023-05-10T17:59:23.702Z,5.97
2023-05-10T18:02:09.606Z,5.90
2023-05-10T18:05:01.775Z,5.97
2023-05-10T18:07:47.242Z,5.68
2023-05-10T18:10:35.271Z,5.70
2023-05-10T18:13:22.702Z,5.67
2023-05-10T18:16:12.536Z,5.67
2023-05-10T18:18:58.272Z,5.33
2023-05-10T18:21:43.545Z,5.17
2023-05-10T18:24:38.430Z,5.40
2023-05-10T18:27:26.695Z,5.10
2023-05-10T18:30:14.496Z,5.13
2023-05-10T18:33:02.421Z,5.60
2023-05-10T18:35:48.361Z,5.43
2023-05-10T18:38:40.423Z,6.00
2023-05-10T18:41:28.405Z,5.13
2023-05-10T18:44:14.582Z,5.00
2023-05-10T18:47:00.342Z,5.17
2023-05-10T18:49:46.244Z,4.97
2023-05-10T18:52:31.711Z,5.17
2023-05-10T18:55:17.534Z,5.77
2023-05-10T18:58:03.224Z,5.00
2023-05-10T19:00:48.788Z,5.60
2023-05-10T19:03:35.823Z,4.93
2023-05-10T19:06:21.390Z,4.80
2023-05-10T19:09:06.646Z,4.70
2023-05-10T19:11:52.088Z,5.07
2023-05-10T19:14:37.669Z,5.03
2023-05-10T19:17:23.090Z,4.70
2023-05-10T19:20:09.666Z,5.30
2023-05-10T19:23:09.182Z,4.87
2023-05-10T19:25:55.881Z,5.03
2023-05-10T19:28:41.260Z,4.90
2023-05-10T19:31:26.663Z,4.27
2023-05-10T19:34:12.122Z,4.57
2023-05-10T19:36:57.464Z,4.33
2023-05-10T19:39:42.659Z,4.60
2023-05-10T19:42:27.987Z,4.40
2023-05-10T19:45:15.594Z,4.47
2023-05-10T19:48:01.445Z,4.27
2023-05-10T19:50:47.135Z,4.37
2023-05-10T19:53:32.592Z,3.77
2023-05-10T19:56:18.447Z,4.37
2023-05-10T19:59:04.065Z,4.47
2023-05-10T20:01:49.496Z,4.27
2023-05-10T20:04:34.915Z,4.20
2023-05-10T20:07:20.071Z,4.10
2023-05-10T20:10:05.706Z,4.47
2023-05-10T20:12:52.231Z,4.17
2023-05-10T20:15:38.022Z,4.00
2023-05-10T20:18:23.960Z,4.17
2023-05-10T20:21:09.167Z,4.20
2023-05-10T20:23:54.578Z,3.73
2023-05-10T20:26:40.802Z,4.53
2023-05-10T20:29:26.446Z,4.03
2023-05-10T20:32:12.100Z,3.70
2023-05-10T20:34:57.347Z,4.00
2023-05-10T20:37:42.490Z,3.30
2023-05-10T20:40:28.117Z,4.17
2023-05-10T20:43:13.692Z,3.60
2023-05-10T20:46:05.198Z,3.50
2023-05-10T20:48:50.913Z,3.77
2023-05-10T20:51:36.095Z,3.80
2023-05-10T20:54:23.064Z,3.60
2023-05-10T20:57:08.534Z,3.53
2023-05-10T20:59:54.650Z,3.70
2023-05-10T21:02:45.526Z,3.60
2023-05-10T21:05:31.269Z,3.67
2023-05-10T21:08:16.347Z,3.60
2023-05-10T21:11:05.684Z,3.63
2023-05-10T21:13:51.355Z,3.73
2023-05-10T21:16:36.824Z,3.50
2023-05-10T21:19:22.383Z,3.70
2023-05-10T21:22:07.915Z,3.30
2023-05-10T21:24:53.491Z,3.43
2023-05-10T21:27:39.190Z,3.80
2023-05-10T21:30:24.996Z,3.20
2023-05-10T21:33:10.627Z,3.17
2023-05-10T21:35:56.797Z,3.40
2023-05-10T21:38:44.436Z,3.13
2023-05-10T21:41:29.761Z,3.23
2023-05-10T21:44:15.013Z,3.63
2023-05-10T21:47:00.164Z,3.27
2023-05-10T21:49:45.357Z,3.40
2023-05-10T21:52:30.737Z,3.50
2023-05-10T21:55:16.721Z,3.13
2023-05-10T21:58:02.197Z,3.40
2023-05-10T22:00:47.490Z,3.47
2023-05-10T22:03:32.842Z,3.40
2023-05-10T22:06:18.115Z,3.27
2023-05-10T22:09:05.093Z,3.13
2023-05-10T22:11:50.207Z,3.20
2023-05-10T22:14:35.638Z,2.70
2023-05-10T22:17:21.109Z,2.90
2023-05-10T22:20:09.716Z,2.70
2023-05-10T22:22:56.030Z,3.03
2023-05-10T22:25:41.580Z,2.90
2023-05-10T22:28:26.911Z,3.07
2023-05-10T22:31:12.780Z,3.00
2023-05-10T22:33:58.207Z,3.00
2023-05-10T22:36:44.597Z,2.90
2023-05-10T22:39:30.062Z,2.97
2023-05-10T22:42:15.723Z,3.10
2023-05-10T22:45:01.098Z,2.90
2023-05-10T22:47:47.329Z,2.70
2023-05-10T22:50:32.535Z,2.77
2023-05-10T22:53:17.884Z,3.10
2023-05-10T22:56:03.291Z,2.77
2023-05-10T22:58:49.447Z,2.60
2023-05-10T23:01:34.931Z,2.80
2023-05-10T23:04:20.248Z,2.77
2023-05-10T23:07:06.003Z,2.60
2023-05-10T23:09:51.462Z,2.90
2023-05-10T23:12:37.155Z,2.50
2023-05-10T23:15:22.489Z,2.80
2023-05-10T23:18:08.395Z,2.83
2023-05-10T23:20:54.109Z,2.27
2023-05-10T23:23:39.393Z,2.40
2023-05-10T23:26:24.685Z,2.67
2023-05-10T23:29:09.959Z,2.30
2023-05-10T23:31:55.498Z,2.50
2023-05-10T23:34:40.990Z,2.30
2023-05-10T23:37:26.397Z,2.33
2023-05-10T23:40:12.024Z,2.83
2023-05-10T23:42:57.516Z,2.50
2023-05-10T23:45:42.745Z,2.53
2023-05-10T23:48:28.166Z,2.50
2023-05-10T23:51:13.335Z,2.60
2023-05-10T23:53:59.182Z,2.40
2023-05-10T23:56:44.423Z,2.40
2023-05-10T23:59:29.816Z,2.77
